Time;durP1;ratioP1;P1;durP2;ratioP2;P2;SDS_P1;SDS_P2;PMS_P1;PMS_P2;Temp;Humidity;BMP_temperature;BMP_pressure;BME280_temperature;BME280_humidity;BME280_pressure;Samples;Min_cycle;Max_cycle;Signal;HPM_P1;HPM_P2
2022/03/23 00:01:26;;;;;;;98.40;31.90;;;;;;;-1.21;64.53;100622.26;2120884;83;20907;-82
2022/03/23 00:04:26;;;;;;;66.27;31.17;;;;;;;-1.27;64.26;100620.45;2110821;84;21006;-82
2022/03/23 00:07:28;;;;;;;303.33;51.40;;;;;;;-1.34;64.35;100621.59;2118036;84;20975;-82
2022/03/23 00:10:29;;;;;;;77.23;32.60;;;;;;;-1.33;65.18;100620.44;2109985;83;20971;-80
2022/03/23 00:13:30;;;;;;;73.53;35.53;;;;;;;-1.33;64.94;100624.28;2123052;84;21018;-82
2022/03/23 00:16:31;;;;;;;80.13;36.17;;;;;;;-1.32;65.29;100623.52;2111506;83;21006;-82
2022/03/23 00:19:31;;;;;;;81.90;35.60;;;;;;;-1.34;65.16;100619.92;2117708;84;21037;-82
2022/03/23 00:22:32;;;;;;;74.20;34.67;;;;;;;-1.42;65.38;100615.80;2113688;83;20998;-83
2022/03/23 00:25:32;;;;;;;91.70;36.97;;;;;;;-1.44;65.50;100614.77;2117476;84;21397;-82
2022/03/23 00:28:33;;;;;;;77.90;32.73;;;;;;;-1.45;65.69;100608.23;2113015;84;21354;-83
2022/03/23 00:31:34;;;;;;;72.17;32.23;;;;;;;-1.48;65.65;100596.44;2111880;83;20947;-83
2022/03/23 00:34:35;;;;;;;77.47;34.33;;;;;;;-1.50;65.30;100602.71;2119090;84;20986;-82
2022/03/23 00:37:36;;;;;;;76.60;34.23;;;;;;;-1.49;65.91;100601.95;2118308;84;21390;-83
2022/03/23 00:40:38;;;;;;;85.73;35.07;;;;;;;-1.44;65.93;100596.84;2119152;84;21007;-83
2022/03/23 00:43:39;;;;;;;90.77;37.37;;;;;;;-1.54;65.71;100596.80;2110030;84;20967;-83
2022/03/23 00:46:40;;;;;;;81.00;36.20;;;;;;;-1.59;65.93;100593.33;2117394;84;21011;-83
2022/03/23 00:49:40;;;;;;;99.60;39.23;;;;;;;-1.62;66.18;100587.56;2121734;83;21438;-83
2022/03/23 00:52:41;;;;;;;82.57;35.20;;;;;;;-1.62;66.51;100586.28;2120877;84;20943;-83
2022/03/23 00:55:41;;;;;;;83.83;36.27;;;;;;;-1.62;66.15;100586.28;2119584;84;20991;-82
2022/03/23 00:58:42;;;;;;;87.37;37.37;;;;;;;-1.69;66.15;100586.51;2116842;84;20992;-83
2022/03/23 01:01:45;;;;;;;80.87;38.23;;;;;;;-1.75;66.34;100585.56;2116950;84;20994;-82
2022/03/23 01:04:45;;;;;;;78.10;37.37;;;;;;;-1.73;66.61;100585.34;2118673;84;21050;-82
2022/03/23 01:07:46;;;;;;;108.17;50.87;;;;;;;-1.68;66.79;100585.36;2114089;83;20979;-82
2022/03/23 01:10:48;;;;;;;270.07;91.43;;;;;;;-1.64;66.97;100585.25;2125209;84;21373;-83
2022/03/23 01:13:48;;;;;;;337.43;114.53;;;;;;;-1.71;66.47;100579.98;2111006;83;21349;-82
2022/03/23 01:16:52;;;;;;;139.87;54.60;;;;;;;-1.80;66.76;100575.30;2118510;84;20947;-83
2022/03/23 01:19:51;;;;;;;94.37;40.80;;;;;;;-1.82;66.59;100569.53;2114917;84;21063;-82
2022/03/23 01:22:52;;;;;;;143.43;43.43;;;;;;;-1.85;66.45;100559.92;2111221;83;21025;-81
2022/03/23 01:25:52;;;;;;;124.40;43.10;;;;;;;-1.85;66.06;100557.73;2112006;83;20979;-83
2022/03/23 01:28:53;;;;;;;89.00;38.47;;;;;;;-1.88;66.49;100557.47;2110916;84;20958;-83
2022/03/23 01:31:53;;;;;;;79.33;37.17;;;;;;;-1.88;66.40;100552.35;2112770;84;20968;-83
2022/03/23 01:34:53;;;;;;;90.53;39.03;;;;;;;-1.91;65.75;100552.98;2112767;83;20950;-82
2022/03/23 01:37:54;;;;;;;88.50;39.63;;;;;;;-2.03;66.50;100554.08;2119538;84;20916;-82
2022/03/23 01:40:54;;;;;;;81.00;37.57;;;;;;;-2.03;66.69;100555.36;2119773;84;20979;-83
2022/03/23 01:43:55;;;;;;;89.07;40.17;;;;;;;-2.06;66.93;100547.42;2111723;84;21002;-83
2022/03/23 01:46:55;;;;;;;80.90;39.70;;;;;;;-2.10;66.71;100540.23;2112121;83;21022;-84
2022/03/23 01:49:56;;;;;;;79.03;37.00;;;;;;;-2.12;66.68;100535.75;2116932;84;21034;-84
2022/03/23 01:52:56;;;;;;;85.13;37.60;;;;;;;-2.14;66.35;100537.27;2112132;84;20974;-84
2022/03/23 01:55:57;;;;;;;87.17;37.73;;;;;;;-2.19;66.37;100539.42;2114376;83;21373;-83
2022/03/23 01:58:57;;;;;;;110.63;44.93;;;;;;;-2.13;67.24;100536.13;2117979;84;21018;-84
2022/03/23 02:01:58;;;;;;;130.73;56.20;;;;;;;-2.06;67.06;100526.95;2118017;84;20982;-85
2022/03/23 02:04:58;;;;;;;179.03;72.83;;;;;;;-2.12;66.93;100529.34;2126140;84;20954;-85
2022/03/23 02:07:59;;;;;;;144.60;60.23;;;;;;;-2.13;67.14;100522.05;2123051;84;20919;-85
2022/03/23 02:10:59;;;;;;;86.10;41.90;;;;;;;-2.15;67.14;100529.98;2118955;84;21398;-84
2022/03/23 02:14:00;;;;;;;79.80;38.30;;;;;;;-2.16;67.37;100530.73;2111910;84;20955;-85
2022/03/23 02:17:00;;;;;;;86.20;37.43;;;;;;;-2.13;67.60;100531.39;2118779;84;20927;-85
2022/03/23 02:20:01;;;;;;;103.93;36.73;;;;;;;-2.14;67.37;100530.49;2119500;84;20995;-85
2022/03/23 02:23:02;;;;;;;77.80;35.87;;;;;;;-2.15;67.41;100527.80;2113912;84;21378;-86
2022/03/23 02:26:02;;;;;;;80.07;36.77;;;;;;;-2.20;67.54;100526.50;2118586;84;20983;-84
2022/03/23 02:29:04;;;;;;;87.03;36.10;;;;;;;-2.24;67.72;100527.89;2118530;84;20951;-83
2022/03/23 02:32:05;;;;;;;73.80;35.90;;;;;;;-2.30;67.72;100526.96;2123068;83;21366;-83
2022/03/23 02:35:07;;;;;;;73.80;36.13;;;;;;;-2.33;67.48;100520.67;2125711;84;20943;-85
2022/03/23 02:38:08;;;;;;;76.10;35.13;;;;;;;-2.33;67.32;100525.80;2126003;84;21410;-84
2022/03/23 02:41:09;;;;;;;77.23;35.37;;;;;;;-2.32;67.35;100525.93;2125570;84;21014;-85
2022/03/23 02:44:09;;;;;;;70.83;33.50;;;;;;;-2.32;67.34;100516.08;2125744;84;21054;-85
2022/03/23 02:47:10;;;;;;;84.07;37.57;;;;;;;-2.33;67.26;100520.67;2125736;84;20974;-83
2022/03/23 02:50:11;;;;;;;102.60;36.77;;;;;;;-2.37;66.98;100514.77;2112586;84;21063;-82
2022/03/23 03:03:08;;;;;;;79.07;38.27;;;;;;;-2.44;67.45;100516.27;2118653;84;21430;-85
2022/03/23 03:06:09;;;;;;;75.80;36.03;;;;;;;-2.51;67.41;100514.83;2112341;84;20948;-83
2022/03/23 03:09:09;;;;;;;162.17;42.87;;;;;;;-2.57;67.56;100517.73;2111967;83;20947;-80
2022/03/23 03:12:11;;;;;;;215.30;47.17;;;;;;;-2.61;68.12;100512.17;2120473;83;21349;-83
2022/03/23 03:15:11;;;;;;;233.07;48.93;;;;;;;-2.59;68.66;100517.98;2114616;84;20947;-83
2022/03/23 03:18:12;;;;;;;72.83;32.43;;;;;;;-2.50;68.97;100520.45;2112495;83;21363;-84
2022/03/23 03:21:13;;;;;;;69.47;33.17;;;;;;;-2.44;71.19;100516.27;2118057;84;21349;-81
2022/03/23 03:24:13;;;;;;;98.87;38.27;;;;;;;-1.16;68.52;100504.40;2111295;84;21014;-85
2022/03/23 03:27:14;;;;;;;381.53;56.70;;;;;;;-1.43;66.72;100497.46;2118584;84;20939;-83
2022/03/23 03:30:14;;;;;;;119.47;38.40;;;;;;;-1.76;66.35;100504.78;2112058;84;20970;-81
2022/03/23 03:33:15;;;;;;;77.03;34.60;;;;;;;-2.00;66.55;100506.11;2118099;84;20938;-83
2022/03/23 03:36:15;;;;;;;70.27;34.47;;;;;;;-2.18;66.72;100500.67;2117434;84;21322;-82
2022/03/23 03:39:16;;;;;;;76.60;36.70;;;;;;;-2.33;66.75;100507.89;2111845;84;20951;-84
2022/03/23 03:42:18;;;;;;;79.00;35.37;;;;;;;-2.40;66.95;100506.83;2119723;84;20971;-84
2022/03/23 03:45:18;;;;;;;84.43;37.13;;;;;;;-2.41;66.69;100504.66;2119546;84;20978;-85
2022/03/23 03:48:19;;;;;;;73.20;35.07;;;;;;;-2.52;66.33;100510.85;2111671;84;20938;-84
2022/03/23 03:51:20;;;;;;;68.97;34.60;;;;;;;-2.69;66.08;100502.54;2117434;84;20998;-84
2022/03/23 03:54:20;;;;;;;72.00;35.03;;;;;;;-2.76;66.38;100505.30;2112994;83;20927;-85
2022/03/23 03:57:21;;;;;;;76.93;35.83;;;;;;;-2.80;66.15;100501.95;2112372;84;20965;-84
2022/03/23 04:00:21;;;;;;;77.13;36.40;;;;;;;-2.84;66.41;100505.37;2121770;83;20938;-84
2022/03/23 04:03:22;;;;;;;68.53;34.43;;;;;;;-2.88;67.33;100508.03;2125796;84;21014;-84
2022/03/23 04:06:22;;;;;;;76.87;35.53;;;;;;;-2.86;67.69;100506.52;2121320;84;20947;-84
2022/03/23 04:09:23;;;;;;;76.83;36.73;;;;;;;-2.90;67.65;100508.27;2118841;84;21318;-83
2022/03/23 04:12:24;;;;;;;121.43;37.37;;;;;;;-2.95;67.95;100510.79;2118248;84;20951;-83
2022/03/23 04:15:25;;;;;;;96.30;36.07;;;;;;;-3.01;68.34;100511.13;2121142;83;20971;-82
2022/03/23 04:18:27;;;;;;;112.10;37.53;;;;;;;-3.03;68.84;100500.25;2111718;83;21026;-84
2022/03/23 04:21:27;;;;;;;73.00;34.73;;;;;;;-3.05;68.67;100497.55;2125562;83;21021;-83
2022/03/23 04:24:28;;;;;;;77.47;35.33;;;;;;;-3.08;68.32;100495.10;2112948;83;20971;-83
2022/03/23 04:27:28;;;;;;;131.07;38.70;;;;;;;-3.11;67.65;100496.10;2119249;84;20951;-83
2022/03/23 04:30:30;;;;;;;81.67;36.17;;;;;;;-3.16;67.71;100496.95;2120506;84;20980;-83
2022/03/23 04:33:30;;;;;;;76.60;33.97;;;;;;;-3.08;68.31;100492.17;2112745;83;21015;-83
2022/03/23 04:36:31;;;;;;;80.07;34.93;;;;;;;-2.97;68.42;100494.04;2119614;84;21382;-84
2022/03/23 04:39:35;;;;;;;77.50;34.13;;;;;;;-2.83;68.37;100495.28;2119956;84;20958;-83
2022/03/23 04:42:36;;;;;;;76.82;34.50;;;;;;;-2.83;68.04;100490.17;2120514;84;20994;-82
2022/03/23 04:45:36;;;;;;;97.17;38.93;;;;;;;-2.97;67.46;100486.75;2109639;84;20986;-82
2022/03/23 04:48:37;;;;;;;73.40;34.40;;;;;;;-3.05;67.90;100488.61;2119209;84;20966;-82
2022/03/23 04:51:38;;;;;;;81.57;34.53;;;;;;;-3.07;68.24;100485.02;2117635;84;21074;-81
2022/03/23 04:54:39;;;;;;;90.43;35.90;;;;;;;-3.11;68.33;100477.84;2118099;84;20986;-80
2022/03/23 04:57:39;;;;;;;73.13;36.57;;;;;;;-3.12;67.88;100475.14;2118169;84;21033;-79
2022/03/23 05:00:40;;;;;;;93.17;37.67;;;;;;;-3.16;67.84;100480.36;2118088;84;21001;-83
2022/03/23 05:03:40;;;;;;;72.43;35.30;;;;;;;-3.16;67.85;100476.91;2122477;83;21028;-82
2022/03/23 05:06:41;;;;;;;81.30;37.17;;;;;;;-3.16;67.87;100483.29;2113539;83;21477;-79
2022/03/23 05:09:41;;;;;;;75.13;35.80;;;;;;;-3.10;68.23;100491.51;2116779;84;22165;-81
2022/03/23 05:12:43;;;;;;;102.10;38.57;;;;;;;-3.02;68.36;100485.44;2118076;84;21142;-80
2022/03/23 05:15:43;;;;;;;73.47;35.27;;;;;;;-2.99;68.06;100485.72;2119051;84;21041;-80
2022/03/23 05:18:44;;;;;;;73.57;35.43;;;;;;;-2.99;67.69;100481.89;2108481;83;20999;-83
2022/03/23 05:21:45;;;;;;;314.87;63.53;;;;;;;-2.92;67.89;100485.52;2116594;84;21042;-83
2022/03/23 05:24:45;;;;;;;1007.03;136.50;;;;;;;-2.75;68.37;100487.93;2116956;84;21321;-81
2022/03/23 05:27:46;;;;;;;159.33;44.27;;;;;;;-2.53;68.85;100492.06;2118809;84;21171;-81
2022/03/23 05:30:46;;;;;;;452.07;59.70;;;;;;;-2.28;68.31;100490.01;2117599;83;21002;-81
2022/03/23 05:33:47;;;;;;;89.37;36.20;;;;;;;-2.11;68.26;100491.11;2116909;84;21025;-83
2022/03/23 05:36:47;;;;;;;73.33;35.97;;;;;;;-1.92;68.23;100490.66;2089546;85;21406;-81
2022/03/23 05:39:48;;;;;;;72.73;35.33;;;;;;;-1.71;67.94;100485.25;2089588;84;21944;-81
2022/03/23 05:42:49;;;;;;;76.80;37.40;;;;;;;-1.52;67.73;100488.99;2089147;85;21089;-84
2022/03/23 05:45:49;;;;;;;72.80;36.10;;;;;;;-1.35;67.45;100487.86;2106327;84;21018;-83
2022/03/23 05:48:50;;;;;;;79.87;37.10;;;;;;;-1.14;67.73;100487.09;2116141;83;20998;-84
2022/03/23 05:51:52;;;;;;;82.20;35.87;;;;;;;-0.96;67.45;100486.06;2107214;84;21014;-84
2022/03/23 05:54:52;;;;;;;78.43;38.33;;;;;;;-0.83;67.58;100480.31;2092882;84;21001;-85
2022/03/23 05:57:55;;;;;;;69.13;36.93;;;;;;;-0.66;67.59;100468.49;2092197;84;21034;-83
2022/03/23 06:00:55;;;;;;;67.87;35.67;;;;;;;-0.41;67.73;100474.33;2092501;84;21039;-84
2022/03/23 06:03:56;;;;;;;65.93;34.83;;;;;;;-0.16;67.61;100470.38;2108116;84;20986;-86
2022/03/23 06:06:56;;;;;;;64.20;35.50;;;;;;;0.10;67.38;100472.86;2089838;84;20978;-84
2022/03/23 06:09:58;;;;;;;205.17;44.57;;;;;;;0.31;67.22;100475.44;2107731;84;21037;-81
2022/03/23 06:12:59;;;;;;;83.13;39.63;;;;;;;0.47;67.39;100473.66;2089648;84;21065;-83
2022/03/23 06:15:59;;;;;;;76.50;37.97;;;;;;;0.78;67.34;100472.16;2089431;85;21038;-84
2022/03/23 06:19:00;;;;;;;73.00;37.40;;;;;;;1.07;66.89;100464.09;2090045;84;20963;-83
2022/03/23 06:22:00;;;;;;;74.73;37.53;;;;;;;1.41;66.72;100468.78;2089511;84;21026;-84
2022/03/23 06:25:01;;;;;;;381.13;68.60;;;;;;;1.64;65.90;100463.63;2098883;84;21044;-84
2022/03/23 06:28:01;;;;;;;120.80;57.40;;;;;;;1.85;65.49;100465.21;2098589;83;21007;-85
2022/03/23 06:31:02;;;;;;;112.93;61.03;;;;;;;2.21;66.02;100466.03;2115819;84;21017;-84
2022/03/23 06:34:04;;;;;;;236.17;64.40;;;;;;;2.60;66.05;100468.30;2097866;84;21033;-85
2022/03/23 06:37:08;;;;;;;1181.23;157.30;;;;;;;2.93;65.77;100467.16;2094661;84;21018;-83
2022/03/23 06:40:08;;;;;;;114.27;46.57;;;;;;;3.31;65.72;100464.56;2108566;84;21533;-83
2022/03/23 06:43:09;;;;;;;95.90;39.60;;;;;;;3.64;65.09;100465.51;2116840;84;21045;-80
2022/03/23 06:46:09;;;;;;;107.83;42.47;;;;;;;3.90;64.68;100468.47;2107671;84;20994;-84
2022/03/23 06:49:10;;;;;;;80.77;39.73;;;;;;;4.05;63.74;100467.27;2112936;84;21095;-84
2022/03/23 06:52:11;;;;;;;91.97;40.47;;;;;;;4.32;63.43;100456.46;2114356;84;21061;-85
2022/03/23 06:55:11;;;;;;;116.80;39.53;;;;;;;4.68;63.16;100463.03;2115705;84;21002;-84
2022/03/23 06:58:12;;;;;;;127.40;42.27;;;;;;;5.05;62.92;100460.55;2116609;84;21046;-84
2022/03/23 07:01:13;;;;;;;510.00;166.37;;;;;;;5.42;61.97;100464.92;2115660;84;21006;-82
2022/03/23 07:04:13;;;;;;;456.23;184.57;;;;;;;5.70;60.97;100465.20;2115732;84;21013;-85
2022/03/23 07:07:13;;;;;;;193.00;76.20;;;;;;;6.04;60.68;100471.91;2109330;84;21009;-81
2022/03/23 07:10:14;;;;;;;96.30;49.47;;;;;;;6.35;59.92;100465.03;2117952;84;20960;-81
2022/03/23 07:13:15;;;;;;;89.30;47.13;;;;;;;6.67;58.85;100467.16;2116893;84;20989;-84
2022/03/23 07:16:15;;;;;;;89.27;45.73;;;;;;;7.08;58.04;100464.56;2109335;83;21460;-83
2022/03/23 07:19:19;;;;;;;81.10;45.10;;;;;;;7.50;56.66;100458.04;2117625;84;21026;-84
2022/03/23 07:22:19;;;;;;;87.87;44.77;;;;;;;7.86;56.01;100461.58;2109689;84;21227;-83
2022/03/23 07:25:20;;;;;;;89.30;47.70;;;;;;;8.17;55.27;100457.42;2115555;84;21976;-83
2022/03/23 07:28:20;;;;;;;83.30;44.47;;;;;;;8.43;54.74;100455.66;2109128;83;21444;-83
2022/03/23 07:31:21;;;;;;;94.70;48.07;;;;;;;8.80;53.75;100449.12;2109535;84;21062;-83
2022/03/23 07:34:22;;;;;;;110.67;46.57;;;;;;;9.13;53.09;100444.90;2117050;84;20990;-84
2022/03/23 07:37:23;;;;;;;71.90;40.00;;;;;;;9.43;52.50;100442.28;2107718;84;21006;-83
2022/03/23 07:40:23;;;;;;;74.37;43.03;;;;;;;9.73;50.85;100437.88;2108526;84;21218;-83
2022/03/23 07:43:24;;;;;;;217.77;49.43;;;;;;;9.98;50.76;100439.33;2109345;83;21069;-85
2022/03/23 07:46:25;;;;;;;87.27;44.57;;;;;;;10.25;50.48;100439.97;2118297;83;20985;-84
2022/03/23 07:49:27;;;;;;;80.00;42.60;;;;;;;10.56;49.66;100432.48;2108870;84;21496;-85
2022/03/23 07:52:27;;;;;;;68.00;40.10;;;;;;;10.87;48.92;100436.22;2109073;84;20990;-84
2022/03/23 07:55:28;;;;;;;65.80;40.63;;;;;;;11.13;47.79;100432.80;2110112;83;21006;-83
2022/03/23 07:58:29;;;;;;;72.40;39.50;;;;;;;11.30;47.67;100440.83;2117404;83;21026;-82
2022/03/23 08:01:30;;;;;;;68.50;37.67;;;;;;;11.54;47.10;100435.54;2117092;84;20978;-84
2022/03/23 08:04:32;;;;;;;56.07;34.67;;;;;;;11.83;46.63;100423.44;2117886;84;21026;-84
2022/03/23 08:07:32;;;;;;;79.77;36.33;;;;;;;12.08;45.43;100422.05;2107880;84;21462;-83
2022/03/23 08:10:33;;;;;;;65.65;35.85;;;;;;;12.40;44.97;100423.47;2108259;84;20981;-83
2022/03/23 08:13:34;;;;;;;53.02;33.67;;;;;;;12.63;44.43;100423.72;2122518;84;21018;-82
2022/03/23 08:16:34;;;;;;;75.42;36.95;;;;;;;12.80;42.66;100419.38;2122134;84;21318;-82
2022/03/23 08:19:35;;;;;;;60.90;35.48;;;;;;;13.56;44.40;100411.85;2110021;84;21716;-82
2022/03/23 08:22:36;;;;;;;59.63;34.92;;;;;;;13.60;42.29;100410.19;2125132;84;20943;-81
2022/03/23 08:25:41;;;;;;;55.40;33.30;;;;;;;13.59;41.53;100408.41;2126555;84;21037;-83
2022/03/23 08:28:42;;;;;;;60.80;35.00;;;;;;;13.79;41.28;100404.95;2123085;84;20974;-83
2022/03/23 08:31:42;;;;;;;53.87;32.90;;;;;;;13.96;39.89;100409.78;2109320;84;22007;-83
2022/03/23 08:34:43;;;;;;;55.90;33.80;;;;;;;14.08;39.16;100406.55;2116972;84;21002;-82
2022/03/23 08:37:43;;;;;;;50.28;29.75;;;;;;;14.17;39.45;100407.17;2116139;84;21005;-83
2022/03/23 08:40:45;;;;;;;83.87;33.02;;;;;;;14.37;38.65;100397.98;2110660;84;21003;-83
2022/03/23 08:43:45;;;;;;;51.28;29.82;;;;;;;14.45;38.33;100404.33;2118849;84;21065;-83
2022/03/23 08:46:46;;;;;;;47.75;29.92;;;;;;;14.65;37.75;100406.93;2109946;84;21006;-83
2022/03/23 08:49:46;;;;;;;44.40;28.12;;;;;;;14.82;36.63;100390.64;2117071;83;20963;-83
2022/03/23 08:55:49;;;;;;;47.83;27.25;;;;;;;15.06;36.22;100394.16;2099486;84;21022;-84
2022/03/23 08:58:50;;;;;;;40.15;26.30;;;;;;;15.20;36.21;100385.66;2118192;84;21033;-84
2022/03/23 09:01:51;;;;;;;39.23;25.43;;;;;;;15.41;35.74;100382.94;2110701;83;20904;-84
2022/03/23 09:04:53;;;;;;;43.52;25.27;;;;;;;15.58;34.97;100376.23;2099129;84;21073;-84
2022/03/23 09:07:54;;;;;;;35.60;22.82;;;;;;;15.71;34.06;100383.50;2117571;84;21908;-83
2022/03/23 09:10:59;;;;;;;44.67;23.87;;;;;;;15.77;33.41;100377.01;2110176;84;20990;-84
2022/03/23 09:13:59;;;;;;;78.90;26.82;;;;;;;15.87;32.55;100376.72;2118234;84;21331;-83
2022/03/23 09:17:00;;;;;;;70.47;23.62;;;;;;;16.01;33.52;100369.02;2121440;83;21001;-83
2022/03/23 09:20:01;;;;;;;64.95;25.27;;;;;;;16.17;32.41;100367.04;2117991;84;21043;-85
2022/03/23 09:23:01;;;;;;;35.45;22.77;;;;;;;16.25;31.93;100365.39;2114247;84;21144;-84
2022/03/23 09:26:05;;;;;;;38.92;22.93;;;;;;;16.39;31.89;100357.66;2120039;84;20986;-84
2022/03/23 09:29:06;;;;;;;32.23;21.97;;;;;;;16.53;31.59;100355.67;2119503;83;21049;-84
2022/03/23 09:32:10;;;;;;;31.27;20.30;;;;;;;16.65;31.08;100356.28;2109624;83;21193;-84
2022/03/23 09:35:09;;;;;;;255.92;36.23;;;;;;;16.76;30.85;100348.48;2108559;84;21055;-83
2022/03/23 09:38:10;;;;;;;32.73;19.42;;;;;;;16.89;30.54;100349.07;2118112;84;20978;-84
2022/03/23 09:41:11;;;;;;;83.27;24.82;;;;;;;17.03;29.81;100342.17;2109545;84;21046;-80
2022/03/23 09:44:11;;;;;;;26.75;18.55;;;;;;;17.18;29.72;100338.36;2117918;84;20994;-84
2022/03/23 09:47:14;;;;;;;31.60;16.23;;;;;;;17.27;29.13;100342.83;2117360;84;21010;-84
2022/03/23 09:50:15;;;;;;;39.20;17.98;;;;;;;17.35;27.98;100345.56;2110489;83;21066;-82
2022/03/23 09:53:16;;;;;;;20.00;14.93;;;;;;;17.46;27.51;100335.54;2110827;83;20959;-85
2022/03/23 09:56:16;;;;;;;24.82;16.73;;;;;;;17.54;27.77;100330.31;2109706;83;20994;-81
2022/03/23 09:59:17;;;;;;;55.48;20.12;;;;;;;17.68;27.25;100323.84;2109493;83;20993;-82
2022/03/23 10:02:17;;;;;;;29.30;18.57;;;;;;;17.71;27.07;100319.47;2114762;84;21005;-83
2022/03/23 10:05:18;;;;;;;34.88;19.73;;;;;;;17.81;27.08;100317.33;2110918;84;21456;-82
2022/03/23 10:08:19;;;;;;;26.07;18.00;;;;;;;17.93;27.38;100317.84;2117071;84;21053;-82
2022/03/23 10:11:19;;;;;;;29.70;17.45;;;;;;;18.07;26.89;100311.30;2122709;83;21421;-85
2022/03/23 10:14:20;;;;;;;24.63;18.30;;;;;;;18.18;26.39;100303.42;2116547;84;21353;-83
2022/03/23 10:17:20;;;;;;;176.47;27.73;;;;;;;18.26;26.54;100303.93;2118136;84;21048;-83
2022/03/23 10:20:21;;;;;;;34.38;17.15;;;;;;;18.31;25.05;100302.63;2116430;84;21021;-83
2022/03/23 10:23:21;;;;;;;39.85;16.87;;;;;;;18.34;25.11;100299.55;2113794;84;21010;-81
2022/03/23 10:26:22;;;;;;;27.50;13.30;;;;;;;18.44;25.31;100296.06;2089699;85;21426;-83
2022/03/23 10:29:23;;;;;;;15.72;11.33;;;;;;;18.58;24.24;100285.96;2093592;84;20994;-84
2022/03/23 10:32:23;;;;;;;16.30;10.40;;;;;;;18.65;22.66;100280.72;2093229;85;20982;-82
2022/03/23 10:35:24;;;;;;;15.18;11.10;;;;;;;18.72;22.18;100281.61;2091822;84;20994;-83
2022/03/23 10:38:25;;;;;;;15.93;10.78;;;;;;;18.74;22.60;100275.45;2092422;84;21069;-82
2022/03/23 10:41:26;;;;;;;15.72;11.55;;;;;;;18.79;23.22;100268.84;2092478;84;20975;-83
2022/03/23 10:47:33;;;;;;;16.48;11.30;;;;;;;19.00;22.77;100264.88;2080796;85;21030;-84
2022/03/23 10:50:34;;;;;;;155.27;21.27;;;;;;;19.11;22.17;100263.59;2092765;85;20989;-84
2022/03/23 10:53:35;;;;;;;23.15;12.40;;;;;;;19.12;21.35;100257.86;2093094;84;21670;-84
2022/03/23 10:56:35;;;;;;;16.12;10.95;;;;;;;19.17;22.03;100258.30;2090149;84;21046;-83
2022/03/23 10:59:36;;;;;;;15.88;11.85;;;;;;;19.25;21.41;100249.03;2091300;85;21035;-86
2022/03/23 11:02:36;;;;;;;20.90;13.72;;;;;;;19.31;21.84;100245.94;2090899;84;21010;-84
2022/03/23 11:05:38;;;;;;;17.75;13.40;;;;;;;19.34;21.72;100241.08;2090253;85;21037;-85
2022/03/23 11:08:38;;;;;;;65.40;17.02;;;;;;;19.34;21.93;100239.31;2092799;84;21066;-83
2022/03/23 11:18:20;;;;;;;17.77;11.55;;;;;;;19.70;21.16;100220.27;2089907;85;21102;-82
2022/03/23 11:21:21;;;;;;;121.42;19.70;;;;;;;19.67;21.26;100213.66;2089723;84;21149;-81
2022/03/23 11:27:28;;;;;;;17.17;11.97;;;;;;;19.77;20.28;100205.23;2084911;85;20979;-83
2022/03/23 11:30:30;;;;;;;16.53;10.27;;;;;;;19.84;19.76;100194.61;2107733;84;21421;-85
2022/03/23 11:33:32;;;;;;;17.17;9.45;;;;;;;19.84;19.77;100191.08;2097509;84;21044;-85
2022/03/23 11:36:35;;;;;;;18.82;9.48;;;;;;;19.87;19.26;100181.79;2098026;84;21038;-82
2022/03/23 11:39:37;;;;;;;13.00;7.47;;;;;;;19.88;18.91;100175.16;2095558;83;21536;-82
2022/03/23 11:42:37;;;;;;;15.40;8.53;;;;;;;19.95;18.50;100170.74;2099525;84;21441;-82
2022/03/23 11:45:38;;;;;;;13.62;8.90;;;;;;;19.94;18.70;100172.51;2118283;84;21874;-85
2022/03/23 11:48:38;;;;;;;14.28;8.25;;;;;;;20.06;18.70;100171.56;2106572;84;21402;-83
2022/03/23 11:51:42;;;;;;;11.43;8.98;;;;;;;20.07;17.94;100164.05;2089445;84;21058;-84
2022/03/23 11:58:02;;;;;;;11.95;8.63;;;;;;;20.02;17.98;100157.45;2092726;84;21077;-84
2022/03/23 12:01:02;;;;;;;9.90;8.08;;;;;;;20.05;18.08;100151.25;2094395;84;20986;-82
2022/03/23 12:04:04;;;;;;;11.15;7.22;;;;;;;20.05;17.76;100147.27;2089727;84;21007;-82
2022/03/23 12:07:04;;;;;;;12.60;7.90;;;;;;;20.09;17.69;100138.86;2092685;84;21088;-82
2022/03/23 12:10:05;;;;;;;9.20;6.67;;;;;;;20.14;17.53;100141.92;2107448;84;21069;-82
2022/03/23 12:13:05;;;;;;;10.28;7.53;;;;;;;20.14;17.37;100135.29;2112550;84;20967;-83
2022/03/23 12:16:08;;;;;;;17.35;7.65;;;;;;;20.23;17.59;100131.70;2090033;85;21007;-81
2022/03/23 12:19:10;;;;;;;644.75;65.65;;;;;;;20.26;17.63;100129.91;2091862;84;21379;-79
2022/03/23 12:22:11;;;;;;;32.55;8.60;;;;;;;20.27;16.93;100129.45;2107547;84;21132;-81
2022/03/23 12:25:12;;;;;;;19.73;8.05;;;;;;;20.33;17.27;100119.69;2107774;84;21033;-81
2022/03/23 12:28:13;;;;;;;11.95;7.62;;;;;;;20.39;17.04;100117.47;2117507;84;21003;-83
2022/03/23 12:31:14;;;;;;;10.48;7.05;;;;;;;20.44;16.35;100110.36;2114033;84;20974;-80
2022/03/23 12:34:16;;;;;;;8.80;6.90;;;;;;;20.43;16.55;100111.25;2099759;84;21018;-83
2022/03/23 12:37:18;;;;;;;9.48;6.60;;;;;;;20.39;16.96;100101.97;2112027;84;21073;-83
2022/03/23 12:40:19;;;;;;;8.23;6.55;;;;;;;20.35;16.54;100098.02;2098399;84;21018;-84
2022/03/23 12:43:19;;;;;;;429.20;34.65;;;;;;;20.35;16.31;100091.39;2117085;84;21065;-82
2022/03/23 12:46:20;;;;;;;21.82;5.72;;;;;;;20.35;16.31;100091.39;2117957;84;21042;-82
2022/03/23 12:59:17;;;;;;;10.55;5.33;;;;;;;20.32;15.53;100076.83;2106945;84;21257;-81
2022/03/23 13:02:19;;;;;;;9.90;4.92;;;;;;;20.33;15.39;100067.10;2107077;84;20991;-82
2022/03/23 13:05:20;;;;;;;8.05;4.83;;;;;;;20.33;14.92;100065.33;2107150;84;21044;-81
2022/03/23 13:08:20;;;;;;;8.40;5.10;;;;;;;20.31;14.52;100067.11;2088827;84;21018;-83
2022/03/23 13:11:21;;;;;;;5.37;4.12;;;;;;;20.30;14.20;100064.03;2088848;84;20993;-82
2022/03/23 13:14:22;;;;;;;5.80;4.90;;;;;;;20.25;14.89;100055.23;2088291;85;21038;-80
2022/03/23 13:17:22;;;;;;;6.80;5.15;;;;;;;20.28;14.38;100052.55;2101293;84;20998;-83
2022/03/23 13:20:22;;;;;;;4.83;4.37;;;;;;;20.27;13.96;100056.09;2098508;84;21037;-84
2022/03/23 13:23:23;;;;;;;5.37;4.72;;;;;;;20.20;13.56;100054.39;2116894;84;21078;-81
2022/03/23 13:26:24;;;;;;;6.87;4.97;;;;;;;20.15;14.34;100048.25;2119165;83;21414;-83
2022/03/23 13:29:25;;;;;;;41.50;7.17;;;;;;;20.18;14.73;100039.39;2108815;83;21708;-82
2022/03/23 13:32:26;;;;;;;6.28;4.97;;;;;;;20.17;13.98;100034.53;2118355;84;20990;-80
2022/03/23 13:35:26;;;;;;;10.55;6.40;;;;;;;20.20;14.40;100038.48;2109780;84;21018;-82
2022/03/23 13:38:27;;;;;;;9.03;6.92;;;;;;;20.21;14.17;100029.64;2123567;84;20986;-82
2022/03/23 13:44:55;;;;;;;8.75;6.58;;;;;;;20.19;14.60;100030.09;2123659;84;20986;-82
2022/03/23 13:47:56;;;;;;;14.03;6.72;;;;;;;20.15;15.27;100028.36;2122314;84;21069;-81
2022/03/23 13:50:57;;;;;;;7.75;6.00;;;;;;;20.26;16.71;100026.50;2108664;84;21002;-84
2022/03/23 13:53:58;;;;;;;6.78;5.58;;;;;;;20.30;17.21;100017.63;2113617;84;21300;-82
2022/03/23 13:56:58;;;;;;;16.85;7.40;;;;;;;20.34;16.07;100007.88;2114256;84;20998;-81
2022/03/23 13:59:59;;;;;;;10.03;6.58;;;;;;;20.35;17.12;100006.53;2114918;84;21007;-82
2022/03/23 14:02:59;;;;;;;9.10;6.70;;;;;;;20.50;16.79;100005.98;2108954;84;21493;-83
2022/03/23 14:06:00;;;;;;;28.23;8.45;;;;;;;20.45;16.08;100005.16;2118172;84;21014;-83
2022/03/23 14:09:00;;;;;;;7.20;6.50;;;;;;;20.43;15.77;99998.98;2114514;84;20963;-82
2022/03/23 14:12:04;;;;;;;9.13;7.17;;;;;;;20.43;16.62;100001.19;2108302;84;21013;-83
2022/03/23 14:15:05;;;;;;;12.73;7.67;;;;;;;20.41;16.02;99989.72;2115831;84;21077;-83
2022/03/23 14:18:06;;;;;;;31.02;10.35;;;;;;;20.44;17.63;99988.81;2108029;83;21013;-81
2022/03/23 14:21:09;;;;;;;;;;;;;;;20.46;16.36;99985.69;2110344;84;21603;-82
2022/03/23 14:24:10;;;;;;;12.00;9.75;;;;;;;20.39;16.40;99982.22;2115506;84;20144;-83
2022/03/23 14:27:10;;;;;;;12.15;9.38;;;;;;;20.27;16.72;99981.86;2099683;84;21041;-81